createdAt,value
2022-09-18T09:39:46.884Z,12.16
2022-09-18T09:42:31.601Z,12.00
2022-09-18T12:56:31.148Z,15.27
2022-09-18T12:59:15.948Z,15.34
2022-09-18T13:02:00.659Z,15.36
2022-09-18T13:04:45.275Z,15.15
2022-09-18T13:07:30.261Z,15.16
2022-09-18T13:10:15.242Z,14.95
2022-09-18T13:13:00.187Z,14.99
2022-09-18T13:15:45.056Z,15.07
2022-09-18T13:18:30.649Z,15.06
2022-09-18T13:21:15.450Z,15.17
2022-09-18T13:24:00.071Z,15.40
2022-09-18T13:26:44.798Z,15.33
2022-09-18T13:29:29.495Z,15.39
2022-09-18T13:32:14.258Z,15.42
2022-09-18T13:34:58.885Z,15.39
2022-09-18T13:37:44.036Z,15.50
2022-09-18T13:40:28.820Z,15.60
2022-09-18T13:43:13.594Z,15.84
2022-09-18T13:45:58.341Z,16.20
2022-09-18T13:48:43.005Z,16.58
2022-09-18T13:51:31.315Z,16.31
2022-09-18T13:54:16.388Z,16.17
2022-09-18T13:57:01.199Z,15.97
2022-09-18T13:59:45.924Z,15.93
2022-09-18T14:02:30.700Z,15.90
2022-09-18T14:05:15.372Z,15.87
2022-09-18T14:08:00.227Z,15.88
2022-09-18T14:10:54.932Z,15.98
2022-09-18T14:13:49.955Z,16.13
2022-09-18T14:16:34.756Z,16.33
2022-09-18T14:19:20.041Z,16.54
2022-09-18T14:22:04.778Z,16.60
2022-09-18T14:24:49.704Z,16.70
2022-09-18T14:27:34.357Z,16.75
2022-09-18T14:30:19.170Z,16.60
2022-09-18T14:33:03.832Z,16.52
2022-09-18T14:35:48.659Z,16.52
2022-09-18T14:38:33.337Z,16.52
2022-09-18T14:41:18.064Z,16.63
2022-09-18T14:44:03.035Z,16.67
2022-09-18T14:46:48.115Z,16.78
2022-09-18T14:49:32.920Z,16.87
2022-09-18T14:52:17.635Z,16.99
2022-09-18T14:55:02.314Z,17.00
2022-09-18T14:57:47.128Z,16.97
2022-09-18T15:00:31.744Z,17.03
2022-09-18T15:03:16.405Z,17.09
2022-09-18T15:06:01.216Z,17.06
2022-09-18T15:08:45.948Z,17.07
2022-09-18T15:11:46.694Z,17.05
2022-09-18T15:14:41.518Z,17.07
2022-09-18T15:17:29.131Z,17.11
2022-09-18T15:20:13.859Z,17.06
2022-09-18T15:22:58.681Z,17.04
2022-09-18T15:25:43.569Z,16.91
2022-09-18T15:28:28.500Z,16.81
2022-09-18T15:31:13.230Z,16.75
2022-09-18T15:33:57.985Z,16.61
2022-09-18T15:36:42.703Z,16.55
2022-09-18T15:39:27.511Z,16.52
2022-09-18T15:42:12.420Z,16.48
2022-09-18T15:44:57.088Z,16.40
2022-09-18T15:47:42.078Z,16.29
2022-09-18T15:50:26.732Z,16.28
2022-09-18T15:53:11.702Z,16.28
2022-09-18T15:55:56.449Z,16.17
2022-09-18T15:58:41.305Z,16.12
2022-09-18T16:01:26.356Z,16.15
2022-09-18T16:04:10.920Z,16.28
2022-09-18T16:06:55.730Z,16.39
2022-09-18T16:09:40.519Z,16.33
2022-09-18T16:12:25.328Z,16.31
2022-09-18T16:15:09.948Z,16.22
2022-09-18T16:17:54.560Z,16.14
2022-09-18T16:20:39.221Z,16.10
2022-09-18T16:23:24.041Z,16.02
2022-09-18T16:26:08.811Z,15.97
2022-09-18T16:28:53.383Z,16.02
2022-09-18T16:31:38.210Z,15.99
2022-09-18T16:34:22.897Z,16.00
2022-09-18T16:37:07.680Z,16.05
2022-09-18T16:39:52.545Z,16.10
2022-09-18T16:42:37.150Z,16.26
2022-09-18T16:45:21.925Z,16.20
2022-09-18T16:48:06.821Z,16.08
2022-09-18T16:50:51.634Z,16.07
2022-09-18T16:53:36.455Z,16.05
2022-09-18T16:56:21.272Z,15.92
2022-09-18T16:59:06.075Z,15.84
2022-09-18T17:02:03.441Z,15.79
2022-09-18T17:04:48.853Z,15.68
2022-09-18T17:07:33.678Z,15.67
2022-09-18T17:10:18.303Z,15.63
2022-09-18T17:13:03.194Z,15.68
2022-09-18T17:15:47.832Z,15.78
2022-09-18T17:18:32.597Z,15.90
2022-09-18T17:21:17.306Z,15.81
2022-09-18T17:24:02.199Z,15.80
2022-09-18T17:26:46.943Z,15.81
2022-09-18T17:29:31.677Z,15.73
2022-09-18T17:32:16.392Z,15.74
2022-09-18T17:35:01.184Z,15.76
2022-09-18T17:37:46.037Z,15.70
2022-09-18T17:40:30.834Z,15.67
2022-09-18T17:43:16.075Z,15.52
2022-09-18T17:46:00.770Z,15.39
2022-09-18T17:48:45.664Z,15.26
2022-09-18T17:51:30.343Z,15.23
2022-09-18T17:54:15.199Z,15.22
2022-09-18T17:56:59.909Z,15.26
2022-09-18T17:59:44.883Z,15.19
2022-09-18T18:02:30.172Z,15.18
2022-09-18T18:05:14.713Z,15.21
2022-09-18T18:07:59.621Z,15.23
2022-09-18T18:10:44.397Z,15.22
2022-09-18T18:13:29.279Z,15.15
2022-09-18T18:16:14.047Z,15.06
2022-09-18T18:18:58.628Z,15.12
2022-09-18T18:21:43.268Z,15.20
2022-09-18T18:24:28.085Z,15.29
2022-09-18T18:27:12.844Z,15.50
2022-09-18T18:29:57.633Z,15.69
2022-09-18T18:32:42.374Z,15.77
2022-09-18T18:35:27.016Z,15.80
2022-09-18T18:38:11.794Z,15.64
2022-09-18T18:40:56.444Z,15.43
2022-09-18T18:43:41.384Z,15.35
2022-09-18T18:46:26.246Z,15.31
2022-09-18T18:49:11.008Z,15.26
2022-09-18T18:51:55.686Z,15.16
2022-09-18T18:54:40.707Z,15.00
2022-09-18T18:57:25.417Z,14.93
2022-09-18T19:00:10.178Z,14.90
2022-09-18T19:02:54.819Z,14.86
2022-09-18T19:05:39.617Z,14.84
2022-09-18T19:08:24.452Z,14.81
2022-09-18T19:11:10.322Z,14.76
2022-09-18T19:13:55.157Z,14.76
2022-09-18T19:16:39.894Z,14.77
2022-09-18T19:19:24.819Z,14.71
2022-09-18T19:22:09.506Z,14.61
2022-09-18T19:24:54.358Z,14.56
2022-09-18T19:27:39.102Z,14.50
2022-09-18T19:30:23.864Z,14.45
2022-09-18T19:33:08.822Z,14.39
2022-09-18T19:35:53.710Z,14.38
2022-09-18T19:38:38.444Z,14.38
2022-09-18T19:41:23.031Z,14.33
2022-09-18T19:44:07.740Z,14.37
2022-09-18T19:46:52.582Z,14.37
2022-09-18T19:49:37.431Z,14.40
2022-09-18T19:52:22.082Z,14.37
2022-09-18T19:55:06.872Z,14.38
2022-09-18T19:57:51.809Z,14.38
2022-09-18T20:00:36.554Z,14.36
2022-09-18T20:03:21.307Z,14.40
2022-09-18T20:06:06.056Z,14.45
2022-09-18T20:08:50.954Z,14.44
2022-09-18T20:11:35.768Z,14.50
2022-09-18T20:14:20.589Z,14.48
2022-09-18T20:17:05.320Z,14.49
2022-09-18T20:19:50.127Z,14.52
2022-09-18T20:22:34.831Z,14.55
2022-09-18T20:25:19.592Z,14.53
2022-09-18T20:28:04.384Z,14.50
2022-09-18T20:30:49.176Z,14.50
2022-09-18T20:33:33.989Z,14.44
2022-09-18T20:36:18.936Z,14.38
2022-09-18T20:39:03.669Z,14.38
2022-09-18T20:41:48.252Z,14.34
2022-09-18T20:44:32.887Z,14.32
2022-09-18T20:47:17.634Z,14.23
2022-09-18T20:50:02.318Z,14.18
2022-09-18T20:52:47.131Z,14.06
2022-09-18T20:55:31.960Z,13.98
2022-09-18T20:58:16.951Z,13.96
2022-09-18T21:01:01.839Z,13.83
2022-09-18T21:03:46.606Z,13.81
2022-09-18T21:06:31.324Z,13.84
2022-09-18T21:09:16.082Z,13.93
2022-09-18T21:12:00.914Z,13.94
2022-09-18T21:14:45.637Z,13.90
2022-09-18T21:17:30.326Z,13.90
2022-09-18T21:20:15.063Z,13.93
2022-09-18T21:22:59.788Z,13.98
2022-09-18T21:25:44.664Z,14.02
2022-09-18T21:28:29.485Z,14.08
2022-09-18T21:31:14.242Z,14.10
2022-09-18T21:33:59.667Z,14.02
2022-09-18T21:36:44.343Z,14.04
2022-09-18T21:39:29.205Z,14.05
2022-09-18T21:42:13.954Z,14.07
2022-09-18T21:44:58.799Z,14.10
2022-09-18T21:47:43.369Z,14.11
2022-09-18T21:50:28.214Z,14.08
2022-09-18T21:53:12.904Z,14.08
2022-09-18T21:55:57.792Z,14.14
2022-09-18T21:58:42.543Z,14.12
2022-09-18T22:01:27.317Z,14.07
2022-09-18T22:04:12.224Z,14.07
2022-09-18T22:06:56.842Z,14.13
2022-09-18T22:09:41.578Z,14.13
2022-09-18T22:12:26.310Z,14.01
2022-09-18T22:15:11.041Z,14.00
2022-09-18T22:17:55.714Z,13.96
2022-09-18T22:20:40.599Z,13.89
2022-09-18T22:23:25.236Z,13.85
2022-09-18T22:26:09.976Z,13.82
2022-09-18T22:28:54.895Z,13.74
2022-09-18T22:31:39.816Z,13.67
2022-09-18T22:34:25.060Z,13.65
2022-09-18T22:37:09.788Z,13.65
2022-09-18T22:39:54.819Z,13.61
2022-09-18T22:42:39.390Z,13.58
2022-09-18T22:45:24.243Z,13.59
2022-09-18T22:48:08.933Z,13.55
2022-09-18T22:50:53.672Z,13.57
2022-09-18T22:53:38.421Z,13.62
2022-09-18T22:56:23.323Z,13.58
2022-09-18T22:59:08.294Z,13.50
2022-09-18T23:01:52.988Z,13.48
2022-09-18T23:04:37.821Z,13.47
2022-09-18T23:07:22.399Z,13.43
2022-09-18T23:10:07.104Z,13.48
2022-09-18T23:12:51.865Z,13.44
2022-09-18T23:15:36.879Z,13.40
2022-09-18T23:18:21.464Z,13.41
2022-09-18T23:21:06.180Z,13.39
2022-09-18T23:23:51.106Z,13.40
2022-09-18T23:26:35.786Z,13.38
2022-09-18T23:29:20.623Z,13.33
2022-09-18T23:32:05.287Z,13.33
2022-09-18T23:34:50.103Z,13.27
2022-09-18T23:37:34.987Z,13.30
2022-09-18T23:40:19.739Z,13.34
2022-09-18T23:43:04.495Z,13.36
2022-09-18T23:45:49.202Z,13.32
2022-09-18T23:48:33.992Z,13.31
2022-09-18T23:51:18.686Z,13.21
2022-09-18T23:54:03.501Z,13.24
2022-09-18T23:56:48.172Z,13.26
2022-09-18T23:59:33.000Z,13.30
